sensor_id;sensor_type;location;lat;lon;timestamp;P1;P2;P0
80394;PMS7003;69720;40.224;116.432;2023-05-09T00:01:48;36.33;29.00;18.00
80394;PMS7003;69720;40.224;116.432;2023-05-09T00:04:15;27.67;25.33;17.67
80394;PMS7003;69720;40.224;116.432;2023-05-09T00:06:42;26.67;24.33;18.33
80394;PMS7003;69720;40.224;116.432;2023-05-09T00:09:09;23.00;19.67;12.00
80394;PMS7003;69720;40.224;116.432;2023-05-09T00:11:37;30.67;25.00;17.33
80394;PMS7003;69720;40.224;116.432;2023-05-09T00:14:04;28.00;27.33;19.00
80394;PMS7003;69720;40.224;116.432;2023-05-09T00:16:32;32.00;27.67;18.00
80394;PMS7003;69720;40.224;116.432;2023-05-09T00:19:01;31.00;26.33;18.33
80394;PMS7003;69720;40.224;116.432;2023-05-09T00:21:29;29.33;28.33;17.33
80394;PMS7003;69720;40.224;116.432;2023-05-09T00:23:56;30.33;28.67;18.00
80394;PMS7003;69720;40.224;116.432;2023-05-09T00:26:24;27.00;24.00;17.67
80394;PMS7003;69720;40.224;116.432;2023-05-09T00:28:52;29.00;26.33;17.67
80394;PMS7003;69720;40.224;116.432;2023-05-09T00:31:19;28.00;26.33;18.67
80394;PMS7003;69720;40.224;116.432;2023-05-09T00:33:46;25.67;23.67;16.67
80394;PMS7003;69720;40.224;116.432;2023-05-09T00:36:13;28.67;26.00;18.67
80394;PMS7003;69720;40.224;116.432;2023-05-09T00:38:40;30.00;29.00;18.33
80394;PMS7003;69720;40.224;116.432;2023-05-09T00:41:07;32.00;27.00;18.00
80394;PMS7003;69720;40.224;116.432;2023-05-09T00:43:35;30.67;25.00;15.33
80394;PMS7003;69720;40.224;116.432;2023-05-09T00:46:01;28.33;25.33;17.67
80394;PMS7003;69720;40.224;116.432;2023-05-09T00:48:29;26.00;25.33;17.33
80394;PMS7003;69720;40.224;116.432;2023-05-09T00:50:56;24.00;23.00;17.00
80394;PMS7003;69720;40.224;116.432;2023-05-09T00:53:24;24.33;23.00;17.33
80394;PMS7003;69720;40.224;116.432;2023-05-09T00:55:52;29.33;26.00;17.67
80394;PMS7003;69720;40.224;116.432;2023-05-09T00:58:20;24.67;22.67;17.00
80394;PMS7003;69720;40.224;116.432;2023-05-09T01:00:48;29.33;28.33;19.00
80394;PMS7003;69720;40.224;116.432;2023-05-09T01:03:16;24.67;24.33;17.33
80394;PMS7003;69720;40.224;116.432;2023-05-09T01:06:04;27.33;22.67;17.00
80394;PMS7003;69720;40.224;116.432;2023-05-09T01:08:58;28.00;24.67;17.00
80394;PMS7003;69720;40.224;116.432;2023-05-09T01:15:03;26.25;21.75;15.00
80394;PMS7003;69720;40.224;116.432;2023-05-09T01:32:13;24.33;22.00;16.67
80394;PMS7003;69720;40.224;116.432;2023-05-09T01:34:47;27.00;22.67;15.33
80394;PMS7003;69720;40.224;116.432;2023-05-09T01:37:18;24.00;24.00;17.33
80394;PMS7003;69720;40.224;116.432;2023-05-09T01:39:49;24.00;22.00;16.67
80394;PMS7003;69720;40.224;116.432;2023-05-09T01:42:21;27.00;24.67;16.67
80394;PMS7003;69720;40.224;116.432;2023-05-09T01:44:50;22.33;20.33;16.00
80394;PMS7003;69720;40.224;116.432;2023-05-09T01:47:19;24.67;23.33;16.00
80394;PMS7003;69720;40.224;116.432;2023-05-09T01:49:48;22.67;22.67;16.00
80394;PMS7003;69720;40.224;116.432;2023-05-09T01:52:16;24.33;22.33;15.00
80394;PMS7003;69720;40.224;116.432;2023-05-09T01:54:45;24.00;22.67;17.00
80394;PMS7003;69720;40.224;116.432;2023-05-09T01:57:13;26.67;24.67;16.00
80394;PMS7003;69720;40.224;116.432;2023-05-09T01:59:41;24.67;23.33;15.00
80394;PMS7003;69720;40.224;116.432;2023-05-09T02:02:11;22.67;22.33;16.00
80394;PMS7003;69720;40.224;116.432;2023-05-09T02:04:39;25.00;25.00;17.67
80394;PMS7003;69720;40.224;116.432;2023-05-09T02:07:08;30.33;24.00;18.00
80394;PMS7003;69720;40.224;116.432;2023-05-09T02:09:36;28.00;24.67;17.00
80394;PMS7003;69720;40.224;116.432;2023-05-09T02:12:03;20.67;20.67;14.33
80394;PMS7003;69720;40.224;116.432;2023-05-09T02:14:31;25.00;24.33;17.00
80394;PMS7003;69720;40.224;116.432;2023-05-09T02:16:59;26.00;22.33;17.00
80394;PMS7003;69720;40.224;116.432;2023-05-09T02:19:34;25.67;23.67;15.67
80394;PMS7003;69720;40.224;116.432;2023-05-09T02:22:01;22.33;21.33;14.00
80394;PMS7003;69720;40.224;116.432;2023-05-09T02:24:30;27.67;26.67;16.00
80394;PMS7003;69720;40.224;116.432;2023-05-09T02:27:04;24.00;23.67;16.67
80394;PMS7003;69720;40.224;116.432;2023-05-09T02:29:36;23.00;21.00;16.67
80394;PMS7003;69720;40.224;116.432;2023-05-09T02:32:21;29.25;24.25;16.00
80394;PMS7003;69720;40.224;116.432;2023-05-09T02:34:51;21.00;20.00;15.00
80394;PMS7003;69720;40.224;116.432;2023-05-09T02:37:20;29.00;24.00;16.00
80394;PMS7003;69720;40.224;116.432;2023-05-09T02:39:48;23.00;20.00;15.00
80394;PMS7003;69720;40.224;116.432;2023-05-09T02:42:25;18.67;17.67;12.67
80394;PMS7003;69720;40.224;116.432;2023-05-09T02:44:54;20.67;19.33;13.33
80394;PMS7003;69720;40.224;116.432;2023-05-09T02:47:21;22.00;20.25;14.00
80394;PMS7003;69720;40.224;116.432;2023-05-09T02:49:50;23.33;21.33;15.00
80394;PMS7003;69720;40.224;116.432;2023-05-09T02:52:17;25.67;23.00;15.00
80394;PMS7003;69720;40.224;116.432;2023-05-09T02:54:44;26.00;23.67;15.33
80394;PMS7003;69720;40.224;116.432;2023-05-09T02:57:12;19.00;17.25;12.00
80394;PMS7003;69720;40.224;116.432;2023-05-09T02:59:39;20.67;20.67;14.00
80394;PMS7003;69720;40.224;116.432;2023-05-09T03:02:06;22.00;18.25;13.00
80394;PMS7003;69720;40.224;116.432;2023-05-09T03:04:33;24.75;22.50;14.00
80394;PMS7003;69720;40.224;116.432;2023-05-09T03:07:00;21.33;21.00;14.00
80394;PMS7003;69720;40.224;116.432;2023-05-09T03:09:28;23.00;23.00;16.00
80394;PMS7003;69720;40.224;116.432;2023-05-09T03:11:55;20.75;19.00;13.25
80394;PMS7003;69720;40.224;116.432;2023-05-09T03:14:22;21.25;20.75;14.50
80394;PMS7003;69720;40.224;116.432;2023-05-09T03:16:49;20.75;20.75;14.50
80394;PMS7003;69720;40.224;116.432;2023-05-09T03:19:16;22.50;21.75;14.00
80394;PMS7003;69720;40.224;116.432;2023-05-09T03:21:43;24.75;23.00;15.50
80394;PMS7003;69720;40.224;116.432;2023-05-09T03:24:10;20.50;19.50;13.25
80394;PMS7003;69720;40.224;116.432;2023-05-09T03:26:37;19.25;18.25;13.25
80394;PMS7003;69720;40.224;116.432;2023-05-09T03:29:04;27.50;23.25;15.75
80394;PMS7003;69720;40.224;116.432;2023-05-09T03:31:31;25.00;23.67;15.00
80394;PMS7003;69720;40.224;116.432;2023-05-09T03:33:58;21.25;20.25;14.50
80394;PMS7003;69720;40.224;116.432;2023-05-09T03:36:26;20.75;20.75;14.75
80394;PMS7003;69720;40.224;116.432;2023-05-09T03:38:53;23.00;21.50;15.00
80394;PMS7003;69720;40.224;116.432;2023-05-09T03:41:20;18.25;16.75;12.75
80394;PMS7003;69720;40.224;116.432;2023-05-09T03:43:47;23.00;21.00;15.00
80394;PMS7003;69720;40.224;116.432;2023-05-09T03:46:14;22.50;20.00;15.25
80394;PMS7003;69720;40.224;116.432;2023-05-09T03:48:41;23.00;22.33;15.67
80394;PMS7003;69720;40.224;116.432;2023-05-09T03:51:08;23.25;20.00;14.50
80394;PMS7003;69720;40.224;116.432;2023-05-09T03:53:35;22.50;19.00;12.00
80394;PMS7003;69720;40.224;116.432;2023-05-09T03:56:02;22.33;20.33;14.00
80394;PMS7003;69720;40.224;116.432;2023-05-09T03:58:31;22.25;20.00;13.75
80394;PMS7003;69720;40.224;116.432;2023-05-09T04:00:58;24.33;23.33;15.00
80394;PMS7003;69720;40.224;116.432;2023-05-09T04:03:25;22.00;18.75;15.00
80394;PMS7003;69720;40.224;116.432;2023-05-09T04:05:52;23.25;22.00;16.00
80394;PMS7003;69720;40.224;116.432;2023-05-09T04:08:19;25.25;22.50;15.00
80394;PMS7003;69720;40.224;116.432;2023-05-09T04:10:47;26.00;22.75;15.50
80394;PMS7003;69720;40.224;116.432;2023-05-09T04:13:15;24.00;22.67;15.00
80394;PMS7003;69720;40.224;116.432;2023-05-09T04:15:42;17.25;16.75;13.25
80394;PMS7003;69720;40.224;116.432;2023-05-09T04:18:10;21.67;21.67;16.00
80394;PMS7003;69720;40.224;116.432;2023-05-09T04:20:37;25.00;22.67;15.67
80394;PMS7003;69720;40.224;116.432;2023-05-09T04:23:04;19.75;18.75;13.75
80394;PMS7003;69720;40.224;116.432;2023-05-09T04:25:31;22.67;20.33;15.00
80394;PMS7003;69720;40.224;116.432;2023-05-09T04:27:59;22.00;21.33;16.00
80394;PMS7003;69720;40.224;116.432;2023-05-09T04:30:26;25.33;22.33;14.33
80394;PMS7003;69720;40.224;116.432;2023-05-09T04:32:53;23.00;20.00;13.33
80394;PMS7003;69720;40.224;116.432;2023-05-09T04:35:20;22.00;21.33;14.33
80394;PMS7003;69720;40.224;116.432;2023-05-09T04:37:48;24.00;20.50;14.00
80394;PMS7003;69720;40.224;116.432;2023-05-09T04:40:16;25.67;22.00;13.33
80394;PMS7003;69720;40.224;116.432;2023-05-09T04:42:43;23.67;21.67;16.33
80394;PMS7003;69720;40.224;116.432;2023-05-09T04:45:10;24.00;23.00;15.00
80394;PMS7003;69720;40.224;116.432;2023-05-09T04:47:37;23.33;21.33;13.67
80394;PMS7003;69720;40.224;116.432;2023-05-09T04:50:05;20.50;20.50;13.25
80394;PMS7003;69720;40.224;116.432;2023-05-09T04:52:32;27.33;22.33;15.00
80394;PMS7003;69720;40.224;116.432;2023-05-09T04:55:00;23.33;20.67;15.67
80394;PMS7003;69720;40.224;116.432;2023-05-09T04:57:27;24.00;19.25;13.00
80394;PMS7003;69720;40.224;116.432;2023-05-09T04:59:55;22.33;22.33;14.33
80394;PMS7003;69720;40.224;116.432;2023-05-09T05:02:22;22.00;22.00;15.75
80394;PMS7003;69720;40.224;116.432;2023-05-09T05:04:50;24.00;22.75;16.00
80394;PMS7003;69720;40.224;116.432;2023-05-09T05:07:17;23.50;21.75;13.50
80394;PMS7003;69720;40.224;116.432;2023-05-09T05:09:44;27.00;24.50;15.75
80394;PMS7003;69720;40.224;116.432;2023-05-09T05:12:11;24.33;24.00;16.67
80394;PMS7003;69720;40.224;116.432;2023-05-09T05:14:38;25.00;23.33;16.00
80394;PMS7003;69720;40.224;116.432;2023-05-09T05:17:05;26.33;23.33;16.33
80394;PMS7003;69720;40.224;116.432;2023-05-09T05:19:32;23.00;19.67;15.00
80394;PMS7003;69720;40.224;116.432;2023-05-09T05:22:00;23.67;22.00;16.00
80394;PMS7003;69720;40.224;116.432;2023-05-09T05:24:27;24.00;24.00;17.33
80394;PMS7003;69720;40.224;116.432;2023-05-09T05:26:54;24.00;23.67;17.00
80394;PMS7003;69720;40.224;116.432;2023-05-09T05:29:22;26.33;23.00;16.00
80394;PMS7003;69720;40.224;116.432;2023-05-09T05:31:48;23.00;21.33;15.00
80394;PMS7003;69720;40.224;116.432;2023-05-09T05:34:16;23.00;21.67;15.67
80394;PMS7003;69720;40.224;116.432;2023-05-09T05:36:43;25.67;24.00;17.00
80394;PMS7003;69720;40.224;116.432;2023-05-09T05:39:11;23.67;23.33;15.67
80394;PMS7003;69720;40.224;116.432;2023-05-09T05:41:41;23.00;22.33;15.67
80394;PMS7003;69720;40.224;116.432;2023-05-09T05:44:08;22.00;22.00;16.00
80394;PMS7003;69720;40.224;116.432;2023-05-09T05:46:35;23.67;23.67;16.33
80394;PMS7003;69720;40.224;116.432;2023-05-09T05:49:02;25.00;24.00;17.00
80394;PMS7003;69720;40.224;116.432;2023-05-09T05:51:29;25.00;22.00;14.67
80394;PMS7003;69720;40.224;116.432;2023-05-09T05:53:56;19.00;19.00;14.00
80394;PMS7003;69720;40.224;116.432;2023-05-09T05:56:24;21.33;19.67;13.00
80394;PMS7003;69720;40.224;116.432;2023-05-09T05:58:51;26.25;22.75;14.75
80394;PMS7003;69720;40.224;116.432;2023-05-09T06:01:18;24.00;23.00;16.00
80394;PMS7003;69720;40.224;116.432;2023-05-09T06:03:45;23.33;23.33;15.00
80394;PMS7003;69720;40.224;116.432;2023-05-09T06:06:19;22.25;20.25;13.75
80394;PMS7003;69720;40.224;116.432;2023-05-09T06:08:47;24.00;19.67;15.00
80394;PMS7003;69720;40.224;116.432;2023-05-09T06:11:15;19.50;18.50;13.00
80394;PMS7003;69720;40.224;116.432;2023-05-09T06:13:43;25.33;21.33;15.00
80394;PMS7003;69720;40.224;116.432;2023-05-09T06:16:10;23.33;22.33;15.33
80394;PMS7003;69720;40.224;116.432;2023-05-09T06:18:37;21.75;20.00;14.00
80394;PMS7003;69720;40.224;116.432;2023-05-09T06:21:05;19.50;17.75;13.25
80394;PMS7003;69720;40.224;116.432;2023-05-09T06:23:32;23.75;22.00;14.25
80394;PMS7003;69720;40.224;116.432;2023-05-09T06:26:01;21.00;18.50;14.00
80394;PMS7003;69720;40.224;116.432;2023-05-09T06:28:29;24.25;20.50;16.75
80394;PMS7003;69720;40.224;116.432;2023-05-09T06:30:56;20.50;19.25;14.75
80394;PMS7003;69720;40.224;116.432;2023-05-09T06:33:23;20.00;19.25;14.00
80394;PMS7003;69720;40.224;116.432;2023-05-09T06:35:50;20.00;19.00;12.00
80394;PMS7003;69720;40.224;116.432;2023-05-09T06:38:17;20.00;18.67;14.00
80394;PMS7003;69720;40.224;116.432;2023-05-09T06:40:44;20.75;18.00;12.00
80394;PMS7003;69720;40.224;116.432;2023-05-09T06:43:12;19.00;17.50;12.00
80394;PMS7003;69720;40.224;116.432;2023-05-09T06:45:39;23.00;19.50;13.25
80394;PMS7003;69720;40.224;116.432;2023-05-09T06:48:06;21.00;19.50;12.00
80394;PMS7003;69720;40.224;116.432;2023-05-09T06:50:33;20.00;17.00;14.00
80394;PMS7003;69720;40.224;116.432;2023-05-09T06:53:00;18.50;17.00;12.75
80394;PMS7003;69720;40.224;116.432;2023-05-09T06:55:27;19.25;18.50;13.00
80394;PMS7003;69720;40.224;116.432;2023-05-09T06:57:55;18.25;18.25;13.25
80394;PMS7003;69720;40.224;116.432;2023-05-09T07:00:22;16.50;15.50;11.50
80394;PMS7003;69720;40.224;116.432;2023-05-09T07:02:49;15.75;14.00;11.00
80394;PMS7003;69720;40.224;116.432;2023-05-09T07:05:16;17.00;16.75;12.50
80394;PMS7003;69720;40.224;116.432;2023-05-09T07:07:43;17.25;16.25;12.25
80394;PMS7003;69720;40.224;116.432;2023-05-09T07:10:11;17.00;14.75;10.75
80394;PMS7003;69720;40.224;116.432;2023-05-09T07:12:38;19.00;17.25;12.50
80394;PMS7003;69720;40.224;116.432;2023-05-09T07:15:06;20.50;19.25;13.00
80394;PMS7003;69720;40.224;116.432;2023-05-09T07:17:33;16.00;13.50;11.00
80394;PMS7003;69720;40.224;116.432;2023-05-09T07:20:00;14.75;13.75;12.00
80394;PMS7003;69720;40.224;116.432;2023-05-09T07:22:29;17.00;15.00;11.25
80394;PMS7003;69720;40.224;116.432;2023-05-09T07:24:56;15.75;14.00;11.75
80394;PMS7003;69720;40.224;116.432;2023-05-09T07:27:24;16.00;15.00;11.50
80394;PMS7003;69720;40.224;116.432;2023-05-09T07:29:51;16.50;13.75;10.00
80394;PMS7003;69720;40.224;116.432;2023-05-09T07:32:18;14.50;13.25;9.75
80394;PMS7003;69720;40.224;116.432;2023-05-09T07:34:45;15.25;15.25;12.00
80394;PMS7003;69720;40.224;116.432;2023-05-09T07:37:12;15.50;15.25;11.00
80394;PMS7003;69720;40.224;116.432;2023-05-09T07:39:39;16.50;14.25;10.50
80394;PMS7003;69720;40.224;116.432;2023-05-09T07:42:06;15.25;15.25;10.00
80394;PMS7003;69720;40.224;116.432;2023-05-09T07:44:34;11.75;11.75;9.25
80394;PMS7003;69720;40.224;116.432;2023-05-09T07:47:01;13.00;13.00;10.00
80394;PMS7003;69720;40.224;116.432;2023-05-09T07:49:30;13.50;13.25;11.00
80394;PMS7003;69720;40.224;116.432;2023-05-09T07:51:57;15.75;13.00;9.75
80394;PMS7003;69720;40.224;116.432;2023-05-09T07:54:24;13.25;13.25;10.50
80394;PMS7003;69720;40.224;116.432;2023-05-09T07:56:52;13.25;13.25;9.75
80394;PMS7003;69720;40.224;116.432;2023-05-09T07:59:19;14.00;13.00;10.00
80394;PMS7003;69720;40.224;116.432;2023-05-09T08:01:46;14.25;13.25;10.00
80394;PMS7003;69720;40.224;116.432;2023-05-09T08:04:13;13.50;11.75;9.00
80394;PMS7003;69720;40.224;116.432;2023-05-09T08:06:40;13.75;12.25;9.75
80394;PMS7003;69720;40.224;116.432;2023-05-09T08:09:08;15.25;13.50;10.00
80394;PMS7003;69720;40.224;116.432;2023-05-09T08:11:35;11.00;10.00;8.50
80394;PMS7003;69720;40.224;116.432;2023-05-09T08:14:03;12.50;11.50;9.00
80394;PMS7003;69720;40.224;116.432;2023-05-09T08:16:30;16.50;13.50;10.00
80394;PMS7003;69720;40.224;116.432;2023-05-09T08:18:57;12.25;12.25;10.00
80394;PMS7003;69720;40.224;116.432;2023-05-09T08:21:24;14.00;13.50;10.25
80394;PMS7003;69720;40.224;116.432;2023-05-09T08:23:51;13.00;11.75;10.00
80394;PMS7003;69720;40.224;116.432;2023-05-09T08:26:18;13.75;10.50;8.00
80394;PMS7003;69720;40.224;116.432;2023-05-09T08:28:47;13.75;11.50;9.00
80394;PMS7003;69720;40.224;116.432;2023-05-09T08:31:14;14.00;13.25;9.75
80394;PMS7003;69720;40.224;116.432;2023-05-09T08:33:41;11.50;9.75;8.00
80394;PMS7003;69720;40.224;116.432;2023-05-09T08:36:08;14.50;12.50;9.00
80394;PMS7003;69720;40.224;116.432;2023-05-09T08:38:35;13.50;13.00;9.75
80394;PMS7003;69720;40.224;116.432;2023-05-09T08:41:05;9.25;7.75;4.00
80394;PMS7003;69720;40.224;116.432;2023-05-09T08:43:32;14.00;14.00;9.00
80394;PMS7003;69720;40.224;116.432;2023-05-09T08:46:02;10.00;9.00;6.00
80394;PMS7003;69720;40.224;116.432;2023-05-09T08:48:35;12.25;11.50;8.00
80394;PMS7003;69720;40.224;116.432;2023-05-09T08:51:03;11.25;11.25;9.00
80394;PMS7003;69720;40.224;116.432;2023-05-09T08:53:31;10.50;10.50;8.50
80394;PMS7003;69720;40.224;116.432;2023-05-09T08:55:59;13.50;12.25;9.50
80394;PMS7003;69720;40.224;116.432;2023-05-09T08:58:27;12.25;12.25;9.00
80394;PMS7003;69720;40.224;116.432;2023-05-09T09:00:56;9.75;9.75;7.25
80394;PMS7003;69720;40.224;116.432;2023-05-09T09:03:24;11.25;11.00;7.00
80394;PMS7003;69720;40.224;116.432;2023-05-09T09:05:52;12.25;12.25;9.50
80394;PMS7003;69720;40.224;116.432;2023-05-09T09:08:21;12.00;11.25;8.00
80394;PMS7003;69720;40.224;116.432;2023-05-09T09:10:49;12.00;12.00;8.25
80394;PMS7003;69720;40.224;116.432;2023-05-09T09:13:16;12.00;9.75;8.00
80394;PMS7003;69720;40.224;116.432;2023-05-09T09:15:45;11.00;11.00;8.00
80394;PMS7003;69720;40.224;116.432;2023-05-09T09:18:31;12.75;12.75;8.50
80394;PMS7003;69720;40.224;116.432;2023-05-09T09:21:02;11.00;11.00;8.00
80394;PMS7003;69720;40.224;116.432;2023-05-09T09:23:32;14.75;13.75;10.75
80394;PMS7003;69720;40.224;116.432;2023-05-09T09:26:01;12.00;12.00;8.00
80394;PMS7003;69720;40.224;116.432;2023-05-09T09:28:32;14.25;14.00;9.25
80394;PMS7003;69720;40.224;116.432;2023-05-09T09:30:59;13.75;13.25;10.75
80394;PMS7003;69720;40.224;116.432;2023-05-09T09:33:27;18.25;17.25;12.25
80394;PMS7003;69720;40.224;116.432;2023-05-09T09:35:56;17.25;16.75;13.00
80394;PMS7003;69720;40.224;116.432;2023-05-09T09:38:24;17.75;17.50;12.75
80394;PMS7003;69720;40.224;116.432;2023-05-09T09:43:25;21.75;19.00;11.75
80394;PMS7003;69720;40.224;116.432;2023-05-09T09:45:53;19.25;17.25;13.00
80394;PMS7003;69720;40.224;116.432;2023-05-09T09:48:25;26.33;22.00;13.00
80394;PMS7003;69720;40.224;116.432;2023-05-09T09:50:56;20.25;19.25;13.00
80394;PMS7003;69720;40.224;116.432;2023-05-09T09:53:27;20.50;19.25;12.00
80394;PMS7003;69720;40.224;116.432;2023-05-09T09:55:55;20.67;20.67;15.00
80394;PMS7003;69720;40.224;116.432;2023-05-09T09:58:22;21.67;18.00;13.67
80394;PMS7003;69720;40.224;116.432;2023-05-09T10:01:09;15.67;10.67;6.00
80394;PMS7003;69720;40.224;116.432;2023-05-09T10:03:41;22.75;18.25;11.50
80394;PMS7003;69720;40.224;116.432;2023-05-09T10:06:13;20.75;18.00;12.75
80394;PMS7003;69720;40.224;116.432;2023-05-09T10:08:43;20.00;18.25;12.50
80394;PMS7003;69720;40.224;116.432;2023-05-09T10:11:13;17.50;14.25;11.00
80394;PMS7003;69720;40.224;116.432;2023-05-09T10:13:41;21.25;17.50;13.75
80394;PMS7003;69720;40.224;116.432;2023-05-09T10:16:09;19.00;18.00;12.67
80394;PMS7003;69720;40.224;116.432;2023-05-09T10:18:37;20.50;18.00;13.00
80394;PMS7003;69720;40.224;116.432;2023-05-09T10:21:07;24.00;20.67;12.33
80394;PMS7003;69720;40.224;116.432;2023-05-09T10:23:41;20.67;18.67;14.33
80394;PMS7003;69720;40.224;116.432;2023-05-09T10:26:17;18.00;17.50;13.25
80394;PMS7003;69720;40.224;116.432;2023-05-09T10:28:56;21.33;20.67;14.67
80394;PMS7003;69720;40.224;116.432;2023-05-09T10:31:26;26.33;21.67;13.00
80394;PMS7003;69720;40.224;116.432;2023-05-09T10:33:57;19.25;18.00;12.00
80394;PMS7003;69720;40.224;116.432;2023-05-09T10:36:30;18.25;17.50;13.00
80394;PMS7003;69720;40.224;116.432;2023-05-09T10:38:57;19.25;17.00;11.25
80394;PMS7003;69720;40.224;116.432;2023-05-09T10:41:26;22.33;19.33;13.33
80394;PMS7003;69720;40.224;116.432;2023-05-09T10:43:57;16.25;15.75;11.25
80394;PMS7003;69720;40.224;116.432;2023-05-09T10:46:24;26.67;20.67;14.00
80394;PMS7003;69720;40.224;116.432;2023-05-09T10:48:52;20.25;19.50;13.75
80394;PMS7003;69720;40.224;116.432;2023-05-09T10:51:20;19.33;18.33;12.67
80394;PMS7003;69720;40.224;116.432;2023-05-09T10:53:49;17.50;16.50;11.75
80394;PMS7003;69720;40.224;116.432;2023-05-09T10:56:31;18.50;17.75;13.75
80394;PMS7003;69720;40.224;116.432;2023-05-09T10:59:04;15.75;15.00;12.00
80394;PMS7003;69720;40.224;116.432;2023-05-09T11:01:35;18.00;16.00;10.50
80394;PMS7003;69720;40.224;116.432;2023-05-09T11:04:13;18.00;16.50;12.25
80394;PMS7003;69720;40.224;116.432;2023-05-09T11:14:46;14.50;14.25;10.50
80394;PMS7003;69720;40.224;116.432;2023-05-09T11:24:58;14.00;14.00;11.25
80394;PMS7003;69720;40.224;116.432;2023-05-09T11:27:26;16.00;12.75;8.75
80394;PMS7003;69720;40.224;116.432;2023-05-09T11:29:54;19.75;14.25;11.00
80394;PMS7003;69720;40.224;116.432;2023-05-09T11:32:33;18.25;15.25;11.50
80394;PMS7003;69720;40.224;116.432;2023-05-09T11:35:15;14.75;14.00;9.75
80394;PMS7003;69720;40.224;116.432;2023-05-09T11:38:00;17.00;15.25;12.00
80394;PMS7003;69720;40.224;116.432;2023-05-09T11:40:30;18.75;13.75;10.00
80394;PMS7003;69720;40.224;116.432;2023-05-09T11:42:58;16.75;14.25;11.00
80394;PMS7003;69720;40.224;116.432;2023-05-09T11:45:27;14.00;13.75;9.00
80394;PMS7003;69720;40.224;116.432;2023-05-09T11:47:56;14.25;11.50;9.50
80394;PMS7003;69720;40.224;116.432;2023-05-09T11:50:23;13.75;13.75;9.25
80394;PMS7003;69720;40.224;116.432;2023-05-09T11:52:51;15.25;13.75;10.00
80394;PMS7003;69720;40.224;116.432;2023-05-09T11:55:20;13.25;13.00;8.50
80394;PMS7003;69720;40.224;116.432;2023-05-09T11:57:49;13.50;12.50;8.75
80394;PMS7003;69720;40.224;116.432;2023-05-09T12:00:24;16.25;12.75;9.25
80394;PMS7003;69720;40.224;116.432;2023-05-09T12:02:51;12.25;12.25;9.00
80394;PMS7003;69720;40.224;116.432;2023-05-09T12:05:19;16.00;13.50;9.25
80394;PMS7003;69720;40.224;116.432;2023-05-09T12:07:47;15.50;15.50;10.00
80394;PMS7003;69720;40.224;116.432;2023-05-09T12:10:15;13.25;13.25;9.00
80394;PMS7003;69720;40.224;116.432;2023-05-09T12:12:49;14.00;12.00;9.75
80394;PMS7003;69720;40.224;116.432;2023-05-09T12:15:17;18.25;15.25;9.50
80394;PMS7003;69720;40.224;116.432;2023-05-09T12:17:46;15.00;14.50;10.75
80394;PMS7003;69720;40.224;116.432;2023-05-09T12:20:25;14.75;12.25;9.00
80394;PMS7003;69720;40.224;116.432;2023-05-09T12:22:52;13.50;13.50;9.50
80394;PMS7003;69720;40.224;116.432;2023-05-09T12:25:20;13.75;13.00;10.00
80394;PMS7003;69720;40.224;116.432;2023-05-09T12:27:49;15.00;13.25;9.25
80394;PMS7003;69720;40.224;116.432;2023-05-09T12:30:19;14.00;13.50;9.00
80394;PMS7003;69720;40.224;116.432;2023-05-09T12:32:46;16.25;14.75;11.75
80394;PMS7003;69720;40.224;116.432;2023-05-09T12:35:13;16.75;13.00;9.25
80394;PMS7003;69720;40.224;116.432;2023-05-09T12:37:53;15.50;12.75;9.00
80394;PMS7003;69720;40.224;116.432;2023-05-09T12:40:22;12.75;12.50;9.50
80394;PMS7003;69720;40.224;116.432;2023-05-09T12:42:49;12.25;12.25;8.00
80394;PMS7003;69720;40.224;116.432;2023-05-09T12:45:24;12.25;12.25;8.50
80394;PMS7003;69720;40.224;116.432;2023-05-09T12:47:51;15.00;13.50;10.00
80394;PMS7003;69720;40.224;116.432;2023-05-09T12:50:19;13.50;13.25;9.25
80394;PMS7003;69720;40.224;116.432;2023-05-09T12:52:50;13.25;13.25;8.50
80394;PMS7003;69720;40.224;116.432;2023-05-09T12:55:18;12.75;11.25;9.00
80394;PMS7003;69720;40.224;116.432;2023-05-09T12:57:59;12.00;12.00;9.00
80394;PMS7003;69720;40.224;116.432;2023-05-09T13:00:39;12.75;12.00;9.50
80394;PMS7003;69720;40.224;116.432;2023-05-09T13:03:20;13.25;12.50;8.50
80394;PMS7003;69720;40.224;116.432;2023-05-09T13:05:56;15.00;13.00;9.00
80394;PMS7003;69720;40.224;116.432;2023-05-09T13:08:27;13.75;12.50;9.00
80394;PMS7003;69720;40.224;116.432;2023-05-09T13:10:59;19.00;13.25;9.75
80394;PMS7003;69720;40.224;116.432;2023-05-09T13:13:27;14.00;14.00;9.75
80394;PMS7003;69720;40.224;116.432;2023-05-09T13:15:54;14.25;14.25;10.50
80394;PMS7003;69720;40.224;116.432;2023-05-09T13:18:22;12.25;11.50;8.25
80394;PMS7003;69720;40.224;116.432;2023-05-09T13:20:50;13.00;11.00;9.00
80394;PMS7003;69720;40.224;116.432;2023-05-09T13:23:17;12.75;10.50;8.00
80394;PMS7003;69720;40.224;116.432;2023-05-09T13:25:46;12.00;12.00;7.50
80394;PMS7003;69720;40.224;116.432;2023-05-09T13:28:14;10.75;10.75;8.25
80394;PMS7003;69720;40.224;116.432;2023-05-09T13:30:42;12.50;11.00;8.75
80394;PMS7003;69720;40.224;116.432;2023-05-09T13:33:11;10.00;10.00;7.25
80394;PMS7003;69720;40.224;116.432;2023-05-09T13:35:38;10.25;10.25;8.00
80394;PMS7003;69720;40.224;116.432;2023-05-09T13:38:05;12.75;11.75;8.25
80394;PMS7003;69720;40.224;116.432;2023-05-09T13:40:34;12.75;12.50;9.00
80394;PMS7003;69720;40.224;116.432;2023-05-09T13:43:02;12.25;10.75;6.50
80394;PMS7003;69720;40.224;116.432;2023-05-09T13:45:32;13.25;11.50;8.00
80394;PMS7003;69720;40.224;116.432;2023-05-09T13:47:59;12.25;12.25;9.00
80394;PMS7003;69720;40.224;116.432;2023-05-09T13:50:27;12.75;10.50;7.25
80394;PMS7003;69720;40.224;116.432;2023-05-09T13:52:55;12.00;11.25;7.75
80394;PMS7003;69720;40.224;116.432;2023-05-09T13:55:23;10.75;9.00;7.00
80394;PMS7003;69720;40.224;116.432;2023-05-09T13:57:51;12.50;11.00;9.00
80394;PMS7003;69720;40.224;116.432;2023-05-09T14:00:18;11.50;11.00;7.25
80394;PMS7003;69720;40.224;116.432;2023-05-09T14:02:50;9.50;9.25;7.75
80394;PMS7003;69720;40.224;116.432;2023-05-09T14:05:17;11.00;10.00;8.00
80394;PMS7003;69720;40.224;116.432;2023-05-09T14:07:45;12.00;11.25;8.00
80394;PMS7003;69720;40.224;116.432;2023-05-09T14:10:12;12.75;11.50;8.25
80394;PMS7003;69720;40.224;116.432;2023-05-09T14:12:39;12.00;11.00;8.50